sensor_id;sensor_type;location;lat;lon;timestamp;pressure;altitude;pressure_sealevel;temperature;humidity
70015;BME280;57358;51.094;6.760;2023-04-22T00:01:20;100352.03;;;7.76;100.00
70015;BME280;57358;51.094;6.760;2023-04-22T00:03:50;100318.81;;;7.59;100.00
70015;BME280;57358;51.094;6.760;2023-04-22T00:06:17;100281.50;;;7.38;100.00
70015;BME280;57358;51.094;6.760;2023-04-22T00:08:44;100340.63;;;7.77;100.00
70015;BME280;57358;51.094;6.760;2023-04-22T00:11:10;100342.97;;;7.84;100.00
70015;BME280;57358;51.094;6.760;2023-04-22T00:13:36;100269.28;;;7.39;100.00
70015;BME280;57358;51.094;6.760;2023-04-22T00:16:03;100348.91;;;7.87;100.00
70015;BME280;57358;51.094;6.760;2023-04-22T00:18:30;100344.44;;;7.89;100.00
70015;BME280;57358;51.094;6.760;2023-04-22T00:20:56;100343.47;;;7.92;100.00
70015;BME280;57358;51.094;6.760;2023-04-22T00:23:22;100275.78;;;7.49;100.00
70015;BME280;57358;51.094;6.760;2023-04-22T00:25:49;100340.78;;;7.93;100.00
70015;BME280;57358;51.094;6.760;2023-04-22T00:28:16;100345.03;;;7.96;100.00
70015;BME280;57358;51.094;6.760;2023-04-22T00:30:42;100342.47;;;7.94;100.00
70015;BME280;57358;51.094;6.760;2023-04-22T00:33:09;100333.44;;;7.83;100.00
70015;BME280;57358;51.094;6.760;2023-04-22T00:35:35;100345.72;;;7.99;100.00
70015;BME280;57358;51.094;6.760;2023-04-22T00:38:02;100351.81;;;8.00;100.00
70015;BME280;57358;51.094;6.760;2023-04-22T00:40:28;100278.75;;;7.61;100.00
70015;BME280;57358;51.094;6.760;2023-04-22T00:42:55;100355.19;;;8.02;100.00
70015;BME280;57358;51.094;6.760;2023-04-22T00:45:22;100353.41;;;8.03;100.00
70015;BME280;57358;51.094;6.760;2023-04-22T00:47:48;100350.81;;;8.03;100.00
70015;BME280;57358;51.094;6.760;2023-04-22T00:50:15;100284.81;;;7.61;100.00
70015;BME280;57358;51.094;6.760;2023-04-22T00:52:41;100221.97;;;7.28;100.00
70015;BME280;57358;51.094;6.760;2023-04-22T00:55:08;100346.28;;;8.06;100.00
70015;BME280;57358;51.094;6.760;2023-04-22T00:57:35;100363.72;;;8.06;100.00
70015;BME280;57358;51.094;6.760;2023-04-22T01:00:04;100370.66;;;8.07;100.00
70015;BME280;57358;51.094;6.760;2023-04-22T01:02:30;100350.50;;;8.09;100.00
70015;BME280;57358;51.094;6.760;2023-04-22T01:04:58;100346.06;;;8.11;100.00
70015;BME280;57358;51.094;6.760;2023-04-22T01:07:25;100345.16;;;8.12;100.00
70015;BME280;57358;51.094;6.760;2023-04-22T01:09:52;100339.34;;;8.05;100.00
70015;BME280;57358;51.094;6.760;2023-04-22T01:12:18;100354.53;;;8.16;100.00
70015;BME280;57358;51.094;6.760;2023-04-22T01:14:45;100300.50;;;7.80;100.00
70015;BME280;57358;51.094;6.760;2023-04-22T01:17:11;100357.28;;;8.13;100.00
70015;BME280;57358;51.094;6.760;2023-04-22T01:19:39;100353.91;;;8.11;100.00
70015;BME280;57358;51.094;6.760;2023-04-22T01:22:12;100359.13;;;8.11;100.00
70015;BME280;57358;51.094;6.760;2023-04-22T01:24:41;100287.06;;;7.69;100.00
70015;BME280;57358;51.094;6.760;2023-04-22T01:27:08;100356.75;;;8.06;100.00
70015;BME280;57358;51.094;6.760;2023-04-22T01:29:36;100357.72;;;8.04;100.00
70015;BME280;57358;51.094;6.760;2023-04-22T01:32:04;100364.66;;;8.05;100.00
70015;BME280;57358;51.094;6.760;2023-04-22T01:34:31;100297.59;;;7.67;100.00
70015;BME280;57358;51.094;6.760;2023-04-22T01:36:58;100362.75;;;8.08;100.00
70015;BME280;57358;51.094;6.760;2023-04-22T01:39:24;100363.53;;;8.10;100.00
70015;BME280;57358;51.094;6.760;2023-04-22T01:41:51;100364.28;;;8.12;100.00
70015;BME280;57358;51.094;6.760;2023-04-22T01:44:18;100294.34;;;7.62;100.00
70015;BME280;57358;51.094;6.760;2023-04-22T01:46:45;100369.59;;;8.11;100.00
70015;BME280;57358;51.094;6.760;2023-04-22T01:49:11;100373.13;;;8.10;100.00
70015;BME280;57358;51.094;6.760;2023-04-22T01:51:38;100402.66;;;8.12;100.00
70015;BME280;57358;51.094;6.760;2023-04-22T01:54:04;100377.13;;;8.17;100.00
70015;BME280;57358;51.094;6.760;2023-04-22T01:56:31;100376.22;;;8.18;100.00
70015;BME280;57358;51.094;6.760;2023-04-22T01:58:57;100367.69;;;8.14;100.00
70015;BME280;57358;51.094;6.760;2023-04-22T02:01:24;100364.22;;;8.14;100.00
70015;BME280;57358;51.094;6.760;2023-04-22T02:03:50;100361.50;;;8.15;100.00
70015;BME280;57358;51.094;6.760;2023-04-22T02:06:17;100365.59;;;8.21;100.00
70015;BME280;57358;51.094;6.760;2023-04-22T02:08:43;100376.91;;;8.22;100.00
70015;BME280;57358;51.094;6.760;2023-04-22T02:11:10;100373.38;;;8.23;100.00
70015;BME280;57358;51.094;6.760;2023-04-22T02:13:39;100378.44;;;8.26;100.00
70015;BME280;57358;51.094;6.760;2023-04-22T02:16:06;100276.56;;;7.70;100.00
70015;BME280;57358;51.094;6.760;2023-04-22T02:18:34;100358.09;;;8.32;100.00
70015;BME280;57358;51.094;6.760;2023-04-22T02:21:00;100281.34;;;7.79;100.00
70015;BME280;57358;51.094;6.760;2023-04-22T02:23:27;100355.56;;;8.31;100.00
70015;BME280;57358;51.094;6.760;2023-04-22T02:25:54;100243.09;;;7.59;100.00
70015;BME280;57358;51.094;6.760;2023-04-22T02:28:21;100281.91;;;7.86;100.00
70015;BME280;57358;51.094;6.760;2023-04-22T02:30:47;100225.34;;;7.49;100.00
70015;BME280;57358;51.094;6.760;2023-04-22T02:33:14;100360.66;;;8.34;100.00
70015;BME280;57358;51.094;6.760;2023-04-22T02:35:40;100348.72;;;8.28;100.00
70015;BME280;57358;51.094;6.760;2023-04-22T02:38:07;100355.25;;;8.37;100.00
70015;BME280;57358;51.094;6.760;2023-04-22T02:40:33;100355.25;;;8.37;100.00
70015;BME280;57358;51.094;6.760;2023-04-22T02:42:59;100352.59;;;8.38;100.00
70015;BME280;57358;51.094;6.760;2023-04-22T02:45:26;100358.81;;;8.36;100.00
70015;BME280;57358;51.094;6.760;2023-04-22T02:47:52;100355.44;;;8.34;100.00
70015;BME280;57358;51.094;6.760;2023-04-22T02:50:19;100257.75;;;7.81;100.00
70015;BME280;57358;51.094;6.760;2023-04-22T02:52:46;100297.47;;;8.07;100.00
70015;BME280;57358;51.094;6.760;2023-04-22T02:55:12;100330.44;;;8.28;100.00
70015;BME280;57358;51.094;6.760;2023-04-22T02:57:38;100347.22;;;8.42;100.00
70015;BME280;57358;51.094;6.760;2023-04-22T03:00:06;100344.47;;;8.45;100.00
70015;BME280;57358;51.094;6.760;2023-04-22T03:02:33;100299.50;;;8.19;100.00
70015;BME280;57358;51.094;6.760;2023-04-22T03:05:00;100214.41;;;7.77;100.00
70015;BME280;57358;51.094;6.760;2023-04-22T03:07:27;100269.72;;;8.04;100.00
70015;BME280;57358;51.094;6.760;2023-04-22T03:09:53;100323.38;;;8.48;100.00
70015;BME280;57358;51.094;6.760;2023-04-22T03:12:21;100325.09;;;8.49;100.00
70015;BME280;57358;51.094;6.760;2023-04-22T03:14:47;100326.88;;;8.48;100.00
70015;BME280;57358;51.094;6.760;2023-04-22T03:17:13;100243.91;;;7.98;100.00
70015;BME280;57358;51.094;6.760;2023-04-22T03:19:40;100317.53;;;8.43;100.00
70015;BME280;57358;51.094;6.760;2023-04-22T03:22:09;100323.31;;;8.49;100.00
70015;BME280;57358;51.094;6.760;2023-04-22T03:24:36;100319.69;;;8.52;100.00
70015;BME280;57358;51.094;6.760;2023-04-22T03:27:03;100266.13;;;8.24;100.00
70015;BME280;57358;51.094;6.760;2023-04-22T03:29:30;100310.94;;;8.53;100.00
70015;BME280;57358;51.094;6.760;2023-04-22T03:31:56;100311.94;;;8.50;100.00
70015;BME280;57358;51.094;6.760;2023-04-22T03:34:23;100308.63;;;8.47;100.00
70015;BME280;57358;51.094;6.760;2023-04-22T03:36:49;100317.38;;;8.46;100.00
70015;BME280;57358;51.094;6.760;2023-04-22T03:39:15;100266.59;;;8.15;100.00
70015;BME280;57358;51.094;6.760;2023-04-22T03:41:42;100305.31;;;8.43;100.00
70015;BME280;57358;51.094;6.760;2023-04-22T03:44:08;100308.47;;;8.50;100.00
70015;BME280;57358;51.094;6.760;2023-04-22T03:46:35;100303.94;;;8.53;100.00
70015;BME280;57358;51.094;6.760;2023-04-22T03:49:02;100302.84;;;8.57;100.00
70015;BME280;57358;51.094;6.760;2023-04-22T03:51:29;100297.47;;;8.61;100.00
70015;BME280;57358;51.094;6.760;2023-04-22T03:53:55;100289.63;;;8.61;100.00
70015;BME280;57358;51.094;6.760;2023-04-22T03:56:21;100296.47;;;8.63;100.00
70015;BME280;57358;51.094;6.760;2023-04-22T03:58:52;100200.63;;;8.10;100.00
70015;BME280;57358;51.094;6.760;2023-04-22T04:01:18;100281.41;;;8.68;100.00
70015;BME280;57358;51.094;6.760;2023-04-22T04:03:44;100287.41;;;8.70;100.00
70015;BME280;57358;51.094;6.760;2023-04-22T04:06:11;100268.84;;;8.57;100.00
70015;BME280;57358;51.094;6.760;2023-04-22T04:08:38;100275.41;;;8.66;100.00
70015;BME280;57358;51.094;6.760;2023-04-22T04:11:04;100166.72;;;8.08;100.00
70015;BME280;57358;51.094;6.760;2023-04-22T04:13:31;100267.13;;;8.74;100.00
70015;BME280;57358;51.094;6.760;2023-04-22T04:15:58;100267.13;;;8.74;100.00
70015;BME280;57358;51.094;6.760;2023-04-22T04:18:25;100162.41;;;8.07;100.00
70015;BME280;57358;51.094;6.760;2023-04-22T04:20:52;100263.34;;;8.79;100.00
70015;BME280;57358;51.094;6.760;2023-04-22T04:23:18;100254.34;;;8.85;100.00
70015;BME280;57358;51.094;6.760;2023-04-22T04:25:45;100255.94;;;8.88;100.00
70015;BME280;57358;51.094;6.760;2023-04-22T04:28:12;100140.53;;;8.10;100.00
70015;BME280;57358;51.094;6.760;2023-04-22T04:30:39;100253.13;;;8.92;100.00
70015;BME280;57358;51.094;6.760;2023-04-22T04:33:06;100250.94;;;9.01;100.00
70015;BME280;57358;51.094;6.760;2023-04-22T04:35:34;100234.25;;;8.86;100.00
70015;BME280;57358;51.094;6.760;2023-04-22T04:38:01;100262.75;;;9.08;100.00
70015;BME280;57358;51.094;6.760;2023-04-22T04:40:27;100249.84;;;9.05;100.00
70015;BME280;57358;51.094;6.760;2023-04-22T04:42:57;100200.88;;;8.73;100.00
70015;BME280;57358;51.094;6.760;2023-04-22T04:45:24;100193.81;;;8.75;100.00
70015;BME280;57358;51.094;6.760;2023-04-22T04:47:51;100141.69;;;8.55;100.00
70015;BME280;57358;51.094;6.760;2023-04-22T04:50:20;100155.41;;;8.60;100.00
70015;BME280;57358;51.094;6.760;2023-04-22T04:52:47;100239.47;;;9.19;100.00
70015;BME280;57358;51.094;6.760;2023-04-22T04:55:15;100232.47;;;9.19;100.00
70015;BME280;57358;51.094;6.760;2023-04-22T04:57:43;100154.63;;;8.74;100.00
70015;BME280;57358;51.094;6.760;2023-04-22T05:00:10;100237.56;;;9.23;100.00
70015;BME280;57358;51.094;6.760;2023-04-22T05:02:36;100243.47;;;9.26;100.00
70015;BME280;57358;51.094;6.760;2023-04-22T05:05:03;100222.94;;;9.18;100.00
70015;BME280;57358;51.094;6.760;2023-04-22T05:07:29;100229.38;;;9.29;100.00
70015;BME280;57358;51.094;6.760;2023-04-22T05:09:56;100232.06;;;9.43;100.00
70015;BME280;57358;51.094;6.760;2023-04-22T05:12:22;100233.50;;;9.49;100.00
70015;BME280;57358;51.094;6.760;2023-04-22T05:14:49;100118.63;;;8.79;100.00
70015;BME280;57358;51.094;6.760;2023-04-22T05:17:15;100234.94;;;9.54;100.00
70015;BME280;57358;51.094;6.760;2023-04-22T05:19:42;100247.44;;;9.65;100.00
70015;BME280;57358;51.094;6.760;2023-04-22T05:22:08;100246.75;;;9.77;100.00
70015;BME280;57358;51.094;6.760;2023-04-22T05:24:34;100250.47;;;9.89;100.00
70015;BME280;57358;51.094;6.760;2023-04-22T05:27:01;100242.09;;;9.98;100.00
70015;BME280;57358;51.094;6.760;2023-04-22T05:29:27;100252.22;;;10.05;100.00
70015;BME280;57358;51.094;6.760;2023-04-22T05:31:54;100246.72;;;10.09;100.00
70015;BME280;57358;51.094;6.760;2023-04-22T05:34:20;100246.34;;;10.15;100.00
70015;BME280;57358;51.094;6.760;2023-04-22T05:36:47;100237.78;;;10.28;100.00
70015;BME280;57358;51.094;6.760;2023-04-22T05:39:13;100244.47;;;10.33;100.00
70015;BME280;57358;51.094;6.760;2023-04-22T05:41:40;100255.75;;;10.50;100.00
70015;BME280;57358;51.094;6.760;2023-04-22T05:44:06;100244.81;;;10.86;100.00
70015;BME280;57358;51.094;6.760;2023-04-22T05:46:33;100253.84;;;11.25;100.00
70015;BME280;57358;51.094;6.760;2023-04-22T05:49:02;100123.16;;;10.73;100.00
70015;BME280;57358;51.094;6.760;2023-04-22T05:51:28;100237.56;;;11.47;100.00
70015;BME280;57358;51.094;6.760;2023-04-22T05:53:54;100236.75;;;11.47;100.00
70015;BME280;57358;51.094;6.760;2023-04-22T05:56:21;100136.56;;;10.68;100.00
70015;BME280;57358;51.094;6.760;2023-04-22T05:58:47;100228.13;;;11.16;100.00
70015;BME280;57358;51.094;6.760;2023-04-22T06:01:14;100116.53;;;10.38;100.00
70015;BME280;57358;51.094;6.760;2023-04-22T06:03:40;100223.19;;;10.97;100.00
70015;BME280;57358;51.094;6.760;2023-04-22T06:06:07;100227.13;;;10.90;100.00
70015;BME280;57358;51.094;6.760;2023-04-22T06:08:33;100178.16;;;10.60;100.00
70015;BME280;57358;51.094;6.760;2023-04-22T06:11:00;100196.38;;;10.77;100.00
70015;BME280;57358;51.094;6.760;2023-04-22T06:13:26;100160.38;;;10.65;100.00
70015;BME280;57358;51.094;6.760;2023-04-22T06:15:53;100083.03;;;10.28;100.00
70015;BME280;57358;51.094;6.760;2023-04-22T06:18:19;100198.50;;;11.00;100.00
70015;BME280;57358;51.094;6.760;2023-04-22T06:20:46;100115.41;;;10.57;100.00
70015;BME280;57358;51.094;6.760;2023-04-22T06:23:12;100224.00;;;11.26;100.00
70015;BME280;57358;51.094;6.760;2023-04-22T06:25:39;100217.34;;;11.35;100.00
70015;BME280;57358;51.094;6.760;2023-04-22T06:28:05;100215.94;;;11.56;100.00
70015;BME280;57358;51.094;6.760;2023-04-22T06:30:31;100208.97;;;11.70;100.00
70015;BME280;57358;51.094;6.760;2023-04-22T06:32:58;100213.41;;;11.96;100.00
70015;BME280;57358;51.094;6.760;2023-04-22T06:35:25;100210.25;;;12.04;100.00
70015;BME280;57358;51.094;6.760;2023-04-22T06:37:52;100199.56;;;12.20;100.00
70015;BME280;57358;51.094;6.760;2023-04-22T06:40:18;100192.53;;;12.33;100.00
70015;BME280;57358;51.094;6.760;2023-04-22T06:42:45;100175.91;;;12.46;100.00
70015;BME280;57358;51.094;6.760;2023-04-22T06:45:11;100170.84;;;12.68;100.00
70015;BME280;57358;51.094;6.760;2023-04-22T06:47:38;100167.16;;;12.84;100.00
70015;BME280;57358;51.094;6.760;2023-04-22T06:50:08;100143.44;;;12.84;100.00
70015;BME280;57358;51.094;6.760;2023-04-22T06:52:35;100107.16;;;12.63;100.00
70015;BME280;57358;51.094;6.760;2023-04-22T06:55:02;100138.16;;;12.96;100.00
70015;BME280;57358;51.094;6.760;2023-04-22T06:57:29;100132.63;;;13.12;100.00
70015;BME280;57358;51.094;6.760;2023-04-22T06:59:56;100120.47;;;13.23;100.00
70015;BME280;57358;51.094;6.760;2023-04-22T07:02:22;100114.69;;;13.30;100.00
70015;BME280;57358;51.094;6.760;2023-04-22T07:04:49;100099.47;;;13.34;100.00
70015;BME280;57358;51.094;6.760;2023-04-22T07:07:15;100091.03;;;13.29;99.72
70015;BME280;57358;51.094;6.760;2023-04-22T07:09:41;100081.47;;;13.28;99.95
70015;BME280;57358;51.094;6.760;2023-04-22T07:12:08;100085.28;;;13.24;100.00
70015;BME280;57358;51.094;6.760;2023-04-22T07:14:35;100082.59;;;13.36;100.00
70015;BME280;57358;51.094;6.760;2023-04-22T07:17:02;100093.25;;;13.59;100.00
70015;BME280;57358;51.094;6.760;2023-04-22T07:19:28;100080.81;;;13.72;100.00
70015;BME280;57358;51.094;6.760;2023-04-22T07:21:55;100059.16;;;13.80;97.05
70015;BME280;57358;51.094;6.760;2023-04-22T07:24:21;100040.31;;;13.85;95.88
70015;BME280;57358;51.094;6.760;2023-04-22T07:26:48;100038.78;;;14.05;95.42
70015;BME280;57358;51.094;6.760;2023-04-22T07:29:15;100022.16;;;14.15;92.10
70015;BME280;57358;51.094;6.760;2023-04-22T07:31:41;100016.13;;;14.36;91.40
70015;BME280;57358;51.094;6.760;2023-04-22T07:34:08;100019.84;;;14.67;90.52
70015;BME280;57358;51.094;6.760;2023-04-22T07:36:36;99971.88;;;14.83;86.56
70015;BME280;57358;51.094;6.760;2023-04-22T07:39:02;99984.16;;;15.05;85.21
70015;BME280;57358;51.094;6.760;2023-04-22T07:41:29;99961.06;;;15.19;83.68
70015;BME280;57358;51.094;6.760;2023-04-22T07:43:55;99936.81;;;15.34;80.69
70015;BME280;57358;51.094;6.760;2023-04-22T07:46:22;99911.50;;;15.32;79.48
70015;BME280;57358;51.094;6.760;2023-04-22T07:48:48;99896.69;;;15.29;79.83
70015;BME280;57358;51.094;6.760;2023-04-22T07:51:15;99902.56;;;15.54;79.88
70015;BME280;57358;51.094;6.760;2023-04-22T07:53:42;99895.72;;;15.72;77.89
70015;BME280;57358;51.094;6.760;2023-04-22T07:56:08;99879.06;;;15.91;76.32
70015;BME280;57358;51.094;6.760;2023-04-22T07:58:35;99859.28;;;15.95;76.44
70015;BME280;57358;51.094;6.760;2023-04-22T08:01:01;99841.78;;;16.04;74.86
70015;BME280;57358;51.094;6.760;2023-04-22T08:03:28;99845.00;;;16.08;74.24
70015;BME280;57358;51.094;6.760;2023-04-22T08:05:54;99825.91;;;16.04;73.69
70015;BME280;57358;51.094;6.760;2023-04-22T08:08:24;99824.81;;;16.17;73.26
70015;BME280;57358;51.094;6.760;2023-04-22T08:10:50;99831.63;;;16.29;73.68
70015;BME280;57358;51.094;6.760;2023-04-22T08:13:17;99760.31;;;16.08;72.51
70015;BME280;57358;51.094;6.760;2023-04-22T08:15:43;99754.28;;;16.25;71.69
70015;BME280;57358;51.094;6.760;2023-04-22T08:18:10;99715.84;;;16.21;70.16
70015;BME280;57358;51.094;6.760;2023-04-22T08:20:36;99764.72;;;16.66;69.61
70015;BME280;57358;51.094;6.760;2023-04-22T08:23:02;99734.16;;;16.71;69.27
70015;BME280;57358;51.094;6.760;2023-04-22T08:25:29;99708.44;;;17.01;67.19
70015;BME280;57358;51.094;6.760;2023-04-22T08:27:56;99720.63;;;17.22;67.00
70015;BME280;57358;51.094;6.760;2023-04-22T08:30:23;99715.34;;;17.40;67.13
70015;BME280;57358;51.094;6.760;2023-04-22T08:32:51;99666.09;;;17.37;65.26
70015;BME280;57358;51.094;6.760;2023-04-22T08:35:18;99628.22;;;17.27;64.66
70015;BME280;57358;51.094;6.760;2023-04-22T08:37:45;99642.25;;;17.37;65.01
70015;BME280;57358;51.094;6.760;2023-04-22T08:40:11;99585.38;;;16.86;66.31
70015;BME280;57358;51.094;6.760;2023-04-22T08:42:38;99656.66;;;17.52;65.30
70015;BME280;57358;51.094;6.760;2023-04-22T08:45:05;99628.44;;;17.69;64.61
70015;BME280;57358;51.094;6.760;2023-04-22T08:47:33;99619.25;;;17.82;64.16
70015;BME280;57358;51.094;6.760;2023-04-22T08:50:03;99616.56;;;17.91;64.86
70015;BME280;57358;51.094;6.760;2023-04-22T08:52:30;99627.22;;;18.18;64.29
70015;BME280;57358;51.094;6.760;2023-04-22T08:54:57;99563.91;;;18.05;63.30
70015;BME280;57358;51.094;6.760;2023-04-22T08:57:23;99541.88;;;17.86;63.47
70015;BME280;57358;51.094;6.760;2023-04-22T08:59:51;99583.38;;;18.13;63.30
70015;BME280;57358;51.094;6.760;2023-04-22T09:02:19;99552.91;;;18.00;63.92
70015;BME280;57358;51.094;6.760;2023-04-22T09:04:48;99563.94;;;18.39;62.77
70015;BME280;57358;51.094;6.760;2023-04-22T09:07:20;99493.38;;;18.37;60.68
70015;BME280;57358;51.094;6.760;2023-04-22T09:09:47;99507.56;;;18.62;59.62
70015;BME280;57358;51.094;6.760;2023-04-22T09:12:14;99518.63;;;18.83;59.86
70015;BME280;57358;51.094;6.760;2023-04-22T09:14:41;99503.88;;;18.97;58.77
70015;BME280;57358;51.094;6.760;2023-04-22T09:17:08;99483.56;;;18.88;58.54
70015;BME280;57358;51.094;6.760;2023-04-22T09:19:34;99478.75;;;18.91;58.10
70015;BME280;57358;51.094;6.760;2023-04-22T09:22:01;99401.09;;;18.63;57.71
70015;BME280;57358;51.094;6.760;2023-04-22T09:24:28;99380.34;;;18.59;57.26
70015;BME280;57358;51.094;6.760;2023-04-22T09:26:54;99439.41;;;19.11;56.92
70015;BME280;57358;51.094;6.760;2023-04-22T09:29:28;99478.63;;;19.34;57.80
70015;BME280;57358;51.094;6.760;2023-04-22T09:31:56;99281.84;;;18.36;56.78
70015;BME280;57358;51.094;6.760;2023-04-22T09:34:22;99475.09;;;19.66;56.23
70015;BME280;57358;51.094;6.760;2023-04-22T09:36:49;99458.59;;;19.96;55.91
70015;BME280;57358;51.094;6.760;2023-04-22T09:39:16;99399.41;;;19.77;55.33
70015;BME280;57358;51.094;6.760;2023-04-22T09:41:43;99461.84;;;20.14;54.61
70015;BME280;57358;51.094;6.760;2023-04-22T09:44:16;99484.28;;;20.28;54.82
70015;BME280;57358;51.094;6.760;2023-04-22T09:46:43;99478.25;;;20.34;53.82
70015;BME280;57358;51.094;6.760;2023-04-22T09:49:10;99460.06;;;20.46;53.21
70015;BME280;57358;51.094;6.760;2023-04-22T09:51:41;99452.00;;;20.62;52.50
70015;BME280;57358;51.094;6.760;2023-04-22T09:54:09;99486.22;;;20.82;51.95
70015;BME280;57358;51.094;6.760;2023-04-22T09:56:47;99471.63;;;20.92;51.13
70015;BME280;57358;51.094;6.760;2023-04-22T09:59:26;99485.81;;;20.93;52.05
70015;BME280;57358;51.094;6.760;2023-04-22T10:02:00;99537.69;;;21.14;52.02
70015;BME280;57358;51.094;6.760;2023-04-22T10:04:29;99526.78;;;21.23;51.32
70015;BME280;57358;51.094;6.760;2023-04-22T10:06:56;99508.69;;;21.34;50.31
70015;BME280;57358;51.094;6.760;2023-04-22T10:09:23;99551.50;;;21.40;50.64
70015;BME280;57358;51.094;6.760;2023-04-22T10:11:55;99453.50;;;20.65;50.03
70015;BME280;57358;51.094;6.760;2023-04-22T10:14:24;99570.97;;;21.26;50.82
70015;BME280;57358;51.094;6.760;2023-04-22T10:16:55;99604.84;;;21.48;50.59
70015;BME280;57358;51.094;6.760;2023-04-22T10:19:25;99598.31;;;21.97;49.85
70015;BME280;57358;51.094;6.760;2023-04-22T10:21:56;99585.59;;;21.99;49.35
70015;BME280;57358;51.094;6.760;2023-04-22T10:24:26;99561.75;;;21.60;48.63
70015;BME280;57358;51.094;6.760;2023-04-22T10:26:55;99561.69;;;21.45;49.22
70015;BME280;57358;51.094;6.760;2023-04-22T10:29:26;99599.53;;;21.48;49.70
70015;BME280;57358;51.094;6.760;2023-04-22T10:32:05;99565.13;;;20.99;49.69
70015;BME280;57358;51.094;6.760;2023-04-22T10:34:35;99479.50;;;20.15;49.87
70015;BME280;57358;51.094;6.760;2023-04-22T10:37:10;99552.47;;;19.98;51.23
70015;BME280;57358;51.094;6.760;2023-04-22T10:39:39;99608.69;;;20.19;52.05
70015;BME280;57358;51.094;6.760;2023-04-22T10:42:09;99629.97;;;20.36;51.67
70015;BME280;57358;51.094;6.760;2023-04-22T10:44:45;99675.56;;;20.74;51.53
70015;BME280;57358;51.094;6.760;2023-04-22T10:47:44;99627.78;;;21.03;50.34
70015;BME280;57358;51.094;6.760;2023-04-22T10:52:37;99609.13;;;21.03;50.09
70015;BME280;57358;51.094;6.760;2023-04-22T10:55:04;99650.97;;;21.34;49.93
70015;BME280;57358;51.094;6.760;2023-04-22T10:57:33;99658.91;;;21.50;49.25
70015;BME280;57358;51.094;6.760;2023-04-22T11:02:46;99623.38;;;21.50;47.87
70015;BME280;57358;51.094;6.760;2023-04-22T11:05:22;99575.97;;;20.98;48.48
70015;BME280;57358;51.094;6.760;2023-04-22T11:08:01;99568.25;;;20.71;48.85
70015;BME280;57358;51.094;6.760;2023-04-22T11:10:34;99617.44;;;20.69;49.81
70015;BME280;57358;51.094;6.760;2023-04-22T11:13:02;99681.44;;;21.08;50.02
70015;BME280;57358;51.094;6.760;2023-04-22T11:15:29;99682.75;;;21.12;49.31
70015;BME280;57358;51.094;6.760;2023-04-22T11:17:59;99693.13;;;21.07;50.46
70015;BME280;57358;51.094;6.760;2023-04-22T11:20:26;99587.84;;;20.39;50.28
70015;BME280;57358;51.094;6.760;2023-04-22T11:22:55;99746.44;;;21.63;50.43
70015;BME280;57358;51.094;6.760;2023-04-22T11:25:25;99747.13;;;21.88;49.77
70015;BME280;57358;51.094;6.760;2023-04-22T11:27:52;99758.03;;;22.33;48.41
70015;BME280;57358;51.094;6.760;2023-04-22T11:30:23;99740.16;;;22.34;48.25
70015;BME280;57358;51.094;6.760;2023-04-22T11:32:53;99737.50;;;22.48;48.52
70015;BME280;57358;51.094;6.760;2023-04-22T11:37:51;99766.81;;;22.80;48.59
70015;BME280;57358;51.094;6.760;2023-04-22T11:40:32;99774.31;;;23.29;47.45
70015;BME280;57358;51.094;6.760;2023-04-22T11:43:04;99617.94;;;22.72;45.69
70015;BME280;57358;51.094;6.760;2023-04-22T11:45:33;99724.28;;;23.44;45.88
70015;BME280;57358;51.094;6.760;2023-04-22T11:48:01;99635.63;;;23.03;45.24
70015;BME280;57358;51.094;6.760;2023-04-22T11:50:31;99741.44;;;23.35;46.35
70015;BME280;57358;51.094;6.760;2023-04-22T11:53:01;99709.72;;;23.32;45.92
70015;BME280;57358;51.094;6.760;2023-04-22T11:55:38;99690.44;;;23.22;45.30
70015;BME280;57358;51.094;6.760;2023-04-22T11:58:09;99743.22;;;23.28;46.40
70015;BME280;57358;51.094;6.760;2023-04-22T12:00:39;99687.28;;;22.88;46.66
70015;BME280;57358;51.094;6.760;2023-04-22T12:03:12;99679.44;;;22.72;46.18
70015;BME280;57358;51.094;6.760;2023-04-22T12:06:00;99686.56;;;22.80;45.92
70015;BME280;57358;51.094;6.760;2023-04-22T12:08:30;99753.50;;;23.09;47.09
70015;BME280;57358;51.094;6.760;2023-04-22T12:11:01;99744.44;;;23.10;46.52
70015;BME280;57358;51.094;6.760;2023-04-22T12:13:30;99722.78;;;22.97;46.75
70015;BME280;57358;51.094;6.760;2023-04-22T12:16:00;99735.75;;;23.08;46.35
70015;BME280;57358;51.094;6.760;2023-04-22T12:18:33;99772.19;;;23.39;46.44
70015;BME280;57358;51.094;6.760;2023-04-22T12:23:30;99780.56;;;23.51;46.51
70015;BME280;57358;51.094;6.760;2023-04-22T12:26:06;99764.31;;;23.67;46.40
70015;BME280;57358;51.094;6.760;2023-04-22T12:28:33;99661.81;;;22.93;45.75
70015;BME280;57358;51.094;6.760;2023-04-22T12:30:59;99673.63;;;22.98;45.72
70015;BME280;57358;51.094;6.760;2023-04-22T12:33:26;99748.50;;;23.06;46.62
70015;BME280;57358;51.094;6.760;2023-04-22T12:35:52;99709.88;;;22.71;46.76
70015;BME280;57358;51.094;6.760;2023-04-22T12:38:18;99691.13;;;22.41;47.48
70015;BME280;57358;51.094;6.760;2023-04-22T12:40:45;99788.81;;;23.05;47.06
70015;BME280;57358;51.094;6.760;2023-04-22T12:43:11;99782.72;;;23.11;46.96
70015;BME280;57358;51.094;6.760;2023-04-22T12:45:39;99717.25;;;22.54;47.20
70015;BME280;57358;51.094;6.760;2023-04-22T12:48:05;99756.34;;;22.55;48.21
70015;BME280;57358;51.094;6.760;2023-04-22T12:50:32;99765.06;;;22.49;48.71
70015;BME280;57358;51.094;6.760;2023-04-22T12:52:58;99775.91;;;22.56;48.12
70015;BME280;57358;51.094;6.760;2023-04-22T12:55:25;99737.34;;;22.27;48.77
70015;BME280;57358;51.094;6.760;2023-04-22T12:57:52;99766.28;;;22.23;49.45
70015;BME280;57358;51.094;6.760;2023-04-22T13:00:19;99782.31;;;22.23;50.08
70015;BME280;57358;51.094;6.760;2023-04-22T13:02:46;99809.00;;;22.32;50.25
70015;BME280;57358;51.094;6.760;2023-04-22T13:05:15;99712.22;;;21.67;49.86